Terminal Aerodrome Forecast
Issued by NWS Albuquerque, NM

Home | Current Version | Previous Version | Text Only | Print | Product List | Glossary On
Versions: 1 2 3 4 5 6 7 8 9 10 11 12 13 14 15 16
000
FTUS45 KABQ 191700
TAFABQ
TAF
KABQ 191735Z 1918/2018 18010G20KT P6SM VCSH FEW040 SCT060 BKN100
      TEMPO 1919/1921 VRB15G25KT 6SM -SHRA BKN040 OVC060
     FM192100 12010KT P6SM -SHRA OVC050
     FM200400 36010KT P6SM VCTS SCT025 OVC040CB
     FM200700 09010KT P6SM VCSH SCT025 OVC040
     FM201400 27005KT P6SM BKN060=

USA.gov is the U.S. government's official web portal to all federal, state and local government web resources and services.